Time;durP1;ratioP1;P1;durP2;ratioP2;P2;SDS_P1;SDS_P2;PMS_P1;PMS_P2;Temp;Humidity;BMP_temperature;BMP_pressure;BME280_temperature;BME280_humidity;BME280_pressure;Samples;Min_cycle;Max_cycle;Signal;HPM_P1;HPM_P2
2023/09/20 00:02:39;;;;;;;12.15;5.45;;;;;;;11.81;80.67;100754.34;10383357;28;20112;-79
2023/09/20 00:07:41;;;;;;;18.33;5.45;;;;;;;11.51;80.31;100712.41;10386049;28;20054;-79
2023/09/20 00:12:43;;;;;;;10.80;5.60;;;;;;;12.28;80.29;100825.59;10379265;28;20128;-79
2023/09/20 00:17:44;;;;;;;9.23;5.55;;;;;;;12.47;80.88;100840.41;10378634;28;20038;-79
2023/09/20 00:22:45;;;;;;;8.25;5.50;;;;;;;12.08;80.76;100752.38;10378169;28;20141;-79
2023/09/20 00:27:46;;;;;;;13.40;5.43;;;;;;;12.43;80.97;100780.47;10378285;28;20096;-79
2023/09/20 00:32:47;;;;;;;11.18;5.53;;;;;;;12.65;81.15;100794.06;10378323;28;20045;-79
2023/09/20 00:37:49;;;;;;;6.75;5.05;;;;;;;12.69;81.19;100779.41;10360956;28;20049;-79
2023/09/20 00:42:50;;;;;;;7.97;5.68;;;;;;;13.23;81.09;100841.72;10377539;28;20207;-79
2023/09/20 00:47:59;;;;;;;20.80;6.20;;;;;;;13.17;81.86;100837.09;10378145;28;20157;-79
2023/09/20 00:53:00;;;;;;;7.28;5.38;;;;;;;12.86;80.33;100791.66;10377642;28;20104;-79
2023/09/20 00:58:09;;;;;;;9.20;5.63;;;;;;;12.54;80.76;100740.13;10359202;28;20058;-79
2023/09/20 01:03:17;;;;;;;8.02;5.82;;;;;;;13.14;80.54;100842.75;10378739;28;20054;-79
2023/09/20 01:08:19;;;;;;;6.85;5.47;;;;;;;13.09;79.97;100846.94;10385768;28;20529;-79
2023/09/20 01:13:20;;;;;;;8.00;5.68;;;;;;;12.33;80.27;100758.50;10376970;28;20050;-79
2023/09/20 01:18:21;;;;;;;7.60;5.15;;;;;;;12.00;80.36;100747.91;10376984;28;20056;-79
2023/09/20 01:23:22;;;;;;;7.53;4.80;;;;;;;11.94;80.89;100816.97;10376631;28;20053;-79
2023/09/20 01:28:25;;;;;;;11.95;5.25;;;;;;;11.73;82.05;100842.19;10375638;28;20116;-79
2023/09/20 01:33:26;;;;;;;15.90;5.15;;;;;;;10.95;82.57;100771.47;10375312;28;20435;-78
2023/09/20 01:38:27;;;;;;;7.80;5.50;;;;;;;11.10;83.87;100816.88;10375304;28;20050;-79
2023/09/20 01:43:27;;;;;;;6.78;5.40;;;;;;;10.72;84.45;100800.41;10358063;28;20054;-78
2023/09/20 01:48:28;;;;;;;7.38;5.80;;;;;;;10.37;85.20;100766.81;10374881;28;20052;-79
2023/09/20 01:53:29;;;;;;;8.20;6.25;;;;;;;10.78;86.17;100844.13;10357746;28;20053;-78
2023/09/20 01:58:30;;;;;;;7.88;5.80;;;;;;;10.76;86.04;100858.56;10375524;28;20081;-79
2023/09/20 02:03:31;;;;;;;7.85;6.28;;;;;;;10.76;86.73;100855.91;10379422;28;20081;-75
2023/09/20 02:08:34;;;;;;;25.35;7.28;;;;;;;10.85;86.89;100868.25;10389225;28;20117;-75
2023/09/20 02:13:34;;;;;;;9.68;6.45;;;;;;;10.81;86.98;100859.75;10364923;28;20053;-76
2023/09/20 02:18:38;;;;;;;10.52;6.70;;;;;;;10.88;87.09;100868.75;10405001;28;20060;-75
2023/09/20 02:23:38;;;;;;;28.25;7.00;;;;;;;10.83;86.99;100863.09;10375434;28;20070;-77
2023/09/20 02:28:40;;;;;;;13.02;6.70;;;;;;;10.69;87.37;100847.72;10374142;28;20084;-75
2023/09/20 02:33:43;;;;;;;12.00;6.85;;;;;;;10.15;87.40;100759.34;10373802;28;20574;-77
2023/09/20 02:38:43;;;;;;;23.38;6.72;;;;;;;10.03;87.37;100730.41;10373188;28;20046;-86
2023/09/20 02:43:45;;;;;;;13.82;7.28;;;;;;;10.37;87.42;100787.25;10380548;28;20529;-76
2023/09/20 02:48:46;;;;;;;35.35;9.77;;;;;;;10.76;87.81;100829.31;10427368;28;20068;-77
2023/09/20 02:53:48;;;;;;;79.07;11.93;;;;;;;11.01;89.82;100799.22;10455012;28;20064;-77
2023/09/20 02:58:48;;;;;;;43.60;10.68;;;;;;;10.73;91.26;100684.31;10454729;28;20519;-77
2023/09/20 03:03:49;;;;;;;15.52;10.82;;;;;;;11.80;93.19;100783.81;10437130;28;20052;-77
2023/09/20 03:08:53;;;;;;;17.92;10.77;;;;;;;12.65;94.82;100872.19;10451828;28;20052;-73
2023/09/20 03:13:54;;;;;;;21.00;11.00;;;;;;;12.76;95.44;100847.84;10394119;28;20054;-72
2023/09/20 03:18:55;;;;;;;14.45;11.10;;;;;;;13.27;96.04;100882.25;10372041;28;20053;-78
2023/09/20 03:23:56;;;;;;;19.38;11.23;;;;;;;13.49;96.16;100845.97;10371570;28;20050;-72
2023/09/20 03:28:57;;;;;;;17.60;10.75;;;;;;;14.00;96.19;100891.75;10371258;28;20053;-73
2023/09/20 03:34:03;;;;;;;18.33;11.02;;;;;;;14.05;95.39;100830.59;10372635;28;20121;-82
2023/09/20 03:39:05;;;;;;;21.00;10.73;;;;;;;14.59;94.57;100851.03;10371527;28;20046;-86
2023/09/20 03:44:06;;;;;;;22.60;9.85;;;;;;;14.83;93.73;100823.22;10372239;28;20120;-83
2023/09/20 03:49:07;;;;;;;13.70;10.50;;;;;;;15.14;92.56;100790.91;10371533;28;20136;-81
2023/09/20 03:54:08;;;;;;;17.00;10.35;;;;;;;16.41;90.84;100885.00;10371914;28;20140;-83
2023/09/20 03:59:12;;;;;;;21.83;9.80;;;;;;;16.82;88.27;100813.75;10372692;28;20057;-81
2023/09/20 04:04:16;;;;;;;;;;;;;;;18.67;84.24;100896.75;10372132;28;20410;-81
2023/09/20 04:09:17;;;;;;;29.25;8.70;;;;;;;18.78;83.16;100824.50;10370914;28;20288;-81
2023/09/20 04:14:18;;;;;;;16.60;8.93;;;;;;;19.16;79.79;100820.06;10371263;28;20157;-83
2023/09/20 04:19:22;;;;;;;12.52;7.97;;;;;;;19.91;76.26;100856.41;10410520;28;20045;-83
2023/09/20 04:24:23;;;;;;;11.32;7.07;;;;;;;20.50;76.26;100872.16;10455861;28;20053;-79
2023/09/20 04:29:25;;;;;;;12.18;7.05;;;;;;;20.32;75.45;100858.63;10451314;28;20099;-76
2023/09/20 04:34:27;;;;;;;15.05;6.95;;;;;;;19.91;75.30;100841.06;10453140;28;20052;-81
2023/09/20 04:39:27;;;;;;;9.02;7.68;;;;;;;18.90;76.42;100764.41;10458566;28;20500;-77
2023/09/20 04:44:53;;;;;;;15.38;8.20;;;;;;;19.02;78.89;100791.50;10460269;28;20045;-90
2023/09/20 04:49:57;;;;;;;11.20;7.05;;;;;;;19.54;78.44;100877.72;10473322;28;20041;-88
2023/09/20 04:54:58;;;;;;;14.65;8.45;;;;;;;19.52;79.34;100886.00;10471151;28;20452;-76
2023/09/20 04:59:59;;;;;;;13.50;6.72;;;;;;;19.47;79.72;100860.75;10459612;28;20079;-78
2023/09/20 05:05:00;;;;;;;10.95;6.50;;;;;;;19.23;80.46;100821.88;10458599;28;20479;-79
2023/09/20 05:10:02;;;;;;;10.07;6.05;;;;;;;19.05;80.65;100779.50;10457644;28;20060;-79
2023/09/20 05:15:03;;;;;;;8.15;6.20;;;;;;;19.37;81.00;100835.09;10460114;28;20048;-80
2023/09/20 05:20:05;;;;;;;7.22;5.57;;;;;;;19.26;80.56;100786.44;10459333;28;20049;-80
2023/09/20 05:25:07;;;;;;;6.97;5.30;;;;;;;19.66;80.54;100840.19;10458143;28;20191;-81
2023/09/20 05:30:09;;;;;;;7.25;5.30;;;;;;;19.74;79.80;100826.44;10440520;28;20048;-81
2023/09/20 05:35:13;;;;;;;13.68;5.00;;;;;;;19.24;79.88;100735.50;10440916;28;20055;-88
2023/09/20 05:40:17;;;;;;;;;;;;;;;20.65;78.76;100900.72;10440914;28;20505;-81
2023/09/20 05:45:23;;;;;;;11.00;4.43;;;;;;;19.61;78.48;100754.53;10457989;28;19917;-81
2023/09/20 05:56:08;;;;;;;9.07;4.07;;;;;;;19.78;78.13;100685.63;10426754;28;20479;-88
2023/09/20 06:01:09;;;;;;;5.50;4.10;;;;;;;21.12;77.10;100906.50;10456772;28;20051;-83
2023/09/20 06:06:13;;;;;;;8.35;3.47;;;;;;;21.08;75.98;100818.84;10439261;28;20420;-83
2023/09/20 06:11:20;;;;;;;6.20;3.83;;;;;;;20.95;74.29;100771.22;10455501;28;20068;-84
2023/09/20 06:16:52;;;;;;;9.50;4.00;;;;;;;20.87;71.50;100694.03;10456508;28;20041;-84
2023/09/20 06:22:15;;;;;;;7.72;3.40;;;;;;;22.48;70.81;100893.50;10456436;28;20088;-81
2023/09/20 06:27:15;;;;;;;8.67;4.00;;;;;;;21.75;70.11;100819.69;10456170;28;20171;-82
2023/09/20 06:32:20;;;;;;;5.15;3.60;;;;;;;21.11;69.14;100700.38;10455985;28;20144;-84
2023/09/20 06:37:21;;;;;;;7.38;4.43;;;;;;;22.40;67.04;100899.25;10455796;28;20512;-80
2023/09/20 06:42:25;;;;;;;12.45;3.97;;;;;;;21.61;65.14;100764.16;10456109;28;20052;-83
2023/09/20 06:47:26;;;;;;;9.98;4.30;;;;;;;21.90;64.96;100784.09;10455995;28;20416;-82
2023/09/20 06:52:27;;;;;;;11.82;3.53;;;;;;;22.18;64.40;100785.34;10455220;28;20071;-81
2023/09/20 07:03:06;;;;;;;7.53;3.70;;;;;;;21.68;62.83;100718.88;4715105;26;20056;-84
2023/09/20 07:08:34;;;;;;;10.45;3.97;;;;;;;23.04;63.01;100902.16;10453698;28;20049;-82
2023/09/20 07:13:49;;;;;;;4.97;3.47;;;;;;;22.23;63.60;100826.88;10454154;28;20053;-86
2023/09/20 07:18:53;;;;;;;16.35;3.55;;;;;;;22.06;62.88;100733.88;10454035;28;20048;-81
2023/09/20 07:24:53;;;;;;;11.10;3.20;;;;;;;22.69;62.04;100724.22;10453881;28;20565;-89
2023/09/20 07:30:36;;;;;;;11.77;3.10;;;;;;;23.23;60.80;100698.50;10319367;28;20410;-90
2023/09/20 07:36:43;;;;;;;7.75;3.15;;;;;;;24.30;59.22;100873.19;10312003;28;20124;-90
2023/09/20 07:48:12;;;;;;;11.82;2.75;;;;;;;22.94;57.97;100658.88;10282246;28;20042;-84
2023/09/20 07:53:28;;;;;;;7.78;2.72;;;;;;;24.08;57.39;100734.69;10326332;28;20053;-82
2023/09/20 07:58:32;;;;;;;11.98;3.00;;;;;;;24.01;57.17;100709.56;10352055;28;20048;-79
2023/09/20 09:00:51;;;;;;;7.70;2.50;;;;;;;24.95;49.54;100714.13;10459688;28;20063;-87
2023/09/20 09:05:53;;;;;;;7.95;2.30;;;;;;;25.59;49.72;100781.44;10441730;28;20052;-82
2023/09/20 09:10:54;;;;;;;3.90;2.10;;;;;;;25.84;48.61;100774.63;10459622;28;20476;-87
2023/09/20 09:15:55;;;;;;;7.32;2.45;;;;;;;26.78;47.62;100811.28;10441271;28;20079;-87
2023/09/20 09:20:57;;;;;;;3.38;2.10;;;;;;;26.51;46.32;100765.88;10459364;28;20503;-82
2023/09/20 09:25:58;;;;;;;7.90;2.53;;;;;;;26.32;46.72;100730.03;10456851;28;20523;-82
2023/09/20 09:31:00;;;;;;;5.65;2.25;;;;;;;26.67;47.36;100779.59;10457837;28;20080;-84
2023/09/20 09:36:02;;;;;;;10.32;2.25;;;;;;;26.33;46.59;100799.78;10458504;28;20041;-81
2023/09/20 09:41:03;;;;;;;7.50;2.17;;;;;;;24.77;47.31;100679.16;10458307;28;20048;-85
2023/09/20 09:46:08;;;;;;;6.15;2.20;;;;;;;24.50;48.49;100722.50;10458044;28;20412;-84
2023/09/20 09:51:13;;;;;;;10.45;2.40;;;;;;;24.02;48.86;100692.25;10439313;28;20059;-86
2023/09/20 09:56:16;;;;;;;11.50;2.53;;;;;;;23.79;48.60;100625.44;10457474;28;20049;-85
2023/09/20 10:01:18;;;;;;;8.93;2.13;;;;;;;24.67;47.98;100698.03;10457604;28;20140;-79
2023/09/20 10:06:27;;;;;;;6.60;2.40;;;;;;;25.31;47.62;100779.81;10456596;28;20045;-83
2023/09/20 10:11:28;;;;;;;5.80;2.30;;;;;;;25.59;47.02;100776.00;10456652;28;20045;-84
2023/09/20 10:16:30;;;;;;;10.77;2.53;;;;;;;25.16;46.93;100684.47;10456462;28;20048;-85
2023/09/20 10:21:31;;;;;;;7.55;2.40;;;;;;;25.50;46.46;100683.16;10457108;28;20386;-83
2023/09/20 10:26:39;;;;;;;6.55;1.98;;;;;;;25.95;44.78;100714.56;10456550;28;20099;-85
2023/09/20 10:31:40;;;;;;;7.57;2.13;;;;;;;25.71;45.67;100735.84;10454847;28;20051;-83
2023/09/20 10:36:54;;;;;;;5.70;2.05;;;;;;;25.57;45.22;100712.03;10455238;28;20508;-89
2023/09/20 10:42:05;;;;;;;7.60;2.40;;;;;;;25.37;46.21;100680.88;10456433;28;20041;-83
2023/09/20 10:47:13;;;;;;;7.22;2.20;;;;;;;25.54;45.58;100701.69;10437815;28;20053;-86
2023/09/20 10:52:37;;;;;;;6.97;2.30;;;;;;;26.07;45.52;100760.66;10455471;28;20075;-80
2023/09/20 10:57:42;;;;;;;10.02;2.50;;;;;;;26.31;45.36;100760.28;10453845;28;20087;-85
2023/09/20 11:02:42;;;;;;;17.52;2.50;;;;;;;25.98;44.66;100690.63;10454560;28;20091;-82
2023/09/20 11:07:43;;;;;;;8.65;2.30;;;;;;;25.78;44.17;100636.84;10455931;28;20076;-81
2023/09/20 11:12:49;;;;;;;12.30;2.60;;;;;;;25.01;44.97;100607.13;10454567;28;20048;-81
2023/09/20 11:18:04;;;;;;;5.95;1.98;;;;;;;25.34;45.56;100656.06;10454730;28;20052;-86
2023/09/20 11:23:15;;;;;;;11.43;2.78;;;;;;;24.85;46.30;100586.28;10454002;28;20097;-82
2023/09/20 11:41:03;;;;;;;9.90;2.10;;;;;;;25.17;44.49;100596.41;10361575;28;20476;-86
2023/09/20 11:46:36;;;;;;;;;;;;;;;;;;;;;
2023/09/20 11:52:20;;;;;;;5.53;2.10;;;;;;;25.85;44.69;100676.41;10461810;28;20052;-83
2023/09/20 11:57:52;;;;;;;9.32;2.05;;;;;;;25.14;44.49;100518.91;10431303;28;20041;-83
2023/09/20 12:02:53;;;;;;;15.00;2.05;;;;;;;26.09;44.90;100708.69;10460750;28;20049;-80
2023/09/20 12:07:56;;;;;;;10.63;2.60;;;;;;;26.24;44.41;100711.50;10444164;28;20056;-79
2023/09/20 12:12:57;;;;;;;;;;;;;;;26.58;43.90;100700.25;10462056;28;20132;-87
2023/09/20 12:17:58;;;;;;;10.90;2.63;;;;;;;26.20;43.38;100674.97;10461461;28;20015;-86
2023/09/20 12:23:01;;;;;;;5.95;2.03;;;;;;;25.85;44.08;100629.31;10461718;28;20057;-83
2023/09/20 12:28:03;;;;;;;9.98;2.35;;;;;;;25.62;45.26;100707.47;10470759;28;20068;-83
2023/09/20 12:33:07;;;;;;;25.57;3.20;;;;;;;25.55;45.44;100706.88;10471890;28;20048;-81
2023/09/20 12:38:07;;;;;;;;;;;;;;;25.67;44.85;100710.25;10461837;28;20337;-89
2023/09/20 12:43:08;;;;;;;4.85;2.22;;;;;;;24.99;45.49;100641.88;10461082;28;19967;-83
2023/09/20 12:48:09;;;;;;;9.82;2.42;;;;;;;24.97;46.03;100698.38;10463113;28;20519;-78
2023/09/20 12:53:10;;;;;;;18.65;3.03;;;;;;;24.78;45.73;100618.28;10479430;28;20057;-79
2023/09/20 12:58:16;;;;;;;8.05;2.80;;;;;;;25.33;45.78;100678.91;10459850;28;20117;-78
2023/09/20 13:03:17;;;;;;;6.88;2.10;;;;;;;25.15;44.81;100623.03;10459018;28;20045;-81
2023/09/20 13:08:19;;;;;;;19.35;3.25;;;;;;;24.70;45.29;100559.78;10459592;28;20049;-83
2023/09/20 13:13:20;;;;;;;10.15;2.53;;;;;;;25.32;45.33;100661.78;10458901;28;20075;-79
2023/09/20 13:18:21;;;;;;;13.20;2.78;;;;;;;25.36;45.57;100690.09;10460588;28;20048;-82
2023/09/20 13:23:22;;;;;;;9.88;2.65;;;;;;;24.94;45.67;100622.78;10469959;28;20049;-83
2023/09/20 13:28:23;;;;;;;14.50;2.58;;;;;;;25.12;45.74;100675.16;10458666;28;20045;-77
2023/09/20 13:33:24;;;;;;;12.60;3.03;;;;;;;25.12;45.48;100675.16;10467824;28;20049;-78
2023/09/20 13:38:25;;;;;;;17.73;3.13;;;;;;;24.94;45.77;100665.44;10499805;28;20511;-78
2023/09/20 13:43:26;;;;;;;7.55;2.80;;;;;;;25.00;45.19;100675.31;10499916;28;20136;-81
2023/09/20 13:48:27;;;;;;;14.88;2.60;;;;;;;24.79;45.06;100671.53;10481519;28;20060;-81
2023/09/20 13:53:28;;;;;;;14.82;2.90;;;;;;;24.44;45.30;100640.19;10498587;28;20056;-80
2023/09/20 13:58:33;;;;;;;9.50;2.60;;;;;;;24.63;45.48;100691.47;10498286;28;20496;-79
2023/09/20 14:03:34;;;;;;;12.43;2.70;;;;;;;23.85;46.07;100580.19;10498984;28;20061;-84
2023/09/20 14:08:35;;;;;;;7.53;2.72;;;;;;;24.35;46.39;100687.78;10498017;28;20151;-81
2023/09/20 14:13:37;;;;;;;11.30;3.33;;;;;;;23.85;46.75;100639.88;10480498;28;20059;-81
2023/09/20 14:18:40;;;;;;;6.72;2.65;;;;;;;23.94;47.26;100678.28;10497671;28;20048;-78
2023/09/20 14:23:41;;;;;;;13.10;2.70;;;;;;;23.38;47.52;100611.19;10497410;28;20407;-78
2023/09/20 14:28:42;;;;;;;34.28;4.85;;;;;;;23.75;47.75;100689.34;10498171;28;20044;-79
2023/09/20 14:33:43;;;;;;;52.50;5.72;;;;;;;23.61;48.02;100683.44;10497577;28;20056;-76
2023/09/20 14:38:49;;;;;;;16.67;3.45;;;;;;;22.98;48.65;100606.72;10498128;28;20147;-77
2023/09/20 14:43:51;;;;;;;6.72;2.67;;;;;;;22.62;48.90;100558.38;10479577;28;20082;-80
2023/09/20 14:48:53;;;;;;;12.10;2.90;;;;;;;23.15;49.57;100682.63;10475969;28;20475;-80
2023/09/20 14:53:55;;;;;;;20.08;3.30;;;;;;;22.90;49.89;100660.44;10438051;28;20053;-79
2023/09/20 14:58:56;;;;;;;21.33;3.00;;;;;;;22.60;50.58;100645.25;10455896;28;20060;-78
2023/09/20 15:03:57;;;;;;;9.57;2.80;;;;;;;22.71;50.97;100692.31;10454832;28;20049;-77
2023/09/20 15:08:58;;;;;;;7.32;2.47;;;;;;;22.56;51.10;100690.94;10454813;28;20048;-77
2023/09/20 15:13:59;;;;;;;18.77;3.05;;;;;;;22.45;51.07;100688.25;10455090;28;20414;-78
2023/09/20 15:19:01;;;;;;;10.32;2.97;;;;;;;22.27;51.62;100686.50;10454801;28;20146;-78
2023/09/20 15:24:02;;;;;;;10.77;3.05;;;;;;;22.08;51.88;100677.66;10453746;28;20052;-77
2023/09/20 15:29:03;;;;;;;8.90;3.08;;;;;;;21.87;52.07;100677.19;10453944;28;20523;-81
2023/09/20 15:34:04;;;;;;;13.00;2.88;;;;;;;21.91;52.21;100703.78;10454613;28;20090;-83
2023/09/20 15:39:04;;;;;;;8.23;2.38;;;;;;;21.10;52.46;100601.47;10454279;28;20110;-87
2023/09/20 15:44:05;;;;;;;96.90;57.88;;;;;;;21.09;52.84;100615.19;10454863;28;20053;-83
2023/09/20 15:49:06;;;;;;;19.95;11.40;;;;;;;20.89;52.94;100604.72;10453477;28;20053;-81
2023/09/20 15:54:07;;;;;;;12.40;5.28;;;;;;;20.72;53.30;100612.63;10453941;28;20060;-82
2023/09/20 15:59:09;;;;;;;10.82;4.35;;;;;;;20.38;53.47;100582.50;10453889;28;20049;-82
2023/09/20 16:04:11;;;;;;;14.20;3.83;;;;;;;20.66;54.17;100657.53;10452909;28;20536;-81
2023/09/20 16:09:12;;;;;;;9.68;3.45;;;;;;;20.83;54.78;100711.75;10454295;28;20079;-82
2023/09/20 16:14:13;;;;;;;10.68;3.53;;;;;;;20.52;55.19;100683.03;10473799;28;20053;-80
2023/09/20 16:19:13;;;;;;;10.25;2.90;;;;;;;20.64;55.86;100718.19;10466845;28;20419;-81
2023/09/20 16:24:14;;;;;;;11.65;2.63;;;;;;;20.40;56.17;100690.19;10494962;28;20040;-80
2023/09/20 16:29:15;;;;;;;8.52;2.78;;;;;;;20.71;56.61;100751.34;10478076;28;20199;-80
2023/09/20 16:34:16;;;;;;;12.50;2.90;;;;;;;19.61;56.88;100604.44;10473321;28;20147;-82
2023/09/20 16:39:17;;;;;;;10.95;3.08;;;;;;;19.71;56.80;100614.75;10460323;28;20044;-82
2023/09/20 16:44:17;;;;;;;15.65;3.25;;;;;;;19.51;57.05;100627.56;10464612;28;20052;-80
2023/09/20 16:49:21;;;;;;;11.57;3.27;;;;;;;19.83;58.05;100710.06;10470432;28;20088;-82
2023/09/20 16:54:22;;;;;;;11.07;3.13;;;;;;;20.05;59.04;100786.00;10493164;28;20131;-79
2023/09/20 16:59:23;;;;;;;14.68;3.63;;;;;;;19.61;60.40;100739.19;10479501;28;20487;-80
2023/09/20 17:04:31;;;;;;;21.95;4.00;;;;;;;19.41;61.60;100711.56;10441386;28;20140;-80
2023/09/20 17:09:36;;;;;;;16.80;6.57;;;;;;;19.54;62.68;100726.81;10469316;28;20049;-83
2023/09/20 17:14:40;;;;;;;10.90;4.45;;;;;;;19.47;63.53;100724.16;10441340;28;20055;-82
2023/09/20 17:19:43;;;;;;;10.00;3.83;;;;;;;19.18;64.80;100701.34;10431562;28;20080;-78
2023/09/20 17:24:45;;;;;;;12.23;3.63;;;;;;;18.93;65.41;100669.81;10446256;28;20059;-80
2023/09/20 17:29:57;;;;;;;18.58;4.25;;;;;;;18.93;66.55;100687.78;10470512;28;20083;-79
2023/09/20 17:34:58;;;;;;;8.82;3.92;;;;;;;18.48;67.53;100617.78;10459369;28;20057;-78
2023/09/20 17:40:00;;;;;;;17.27;3.88;;;;;;;19.10;69.07;100725.84;10459547;28;20067;-78
2023/09/20 17:45:02;;;;;;;8.65;3.95;;;;;;;19.39;70.21;100781.84;10471639;28;20053;-79
2023/09/20 17:50:06;;;;;;;6.63;3.67;;;;;;;18.61;71.42;100666.19;10457654;28;20053;-78
2023/09/20 17:55:08;;;;;;;8.48;4.10;;;;;;;18.98;72.34;100728.38;10458293;28;20382;-82
2023/09/20 18:00:15;;;;;;;10.32;4.10;;;;;;;18.90;73.39;100726.72;10459522;28;20047;-81
2023/09/20 18:05:16;;;;;;;12.88;4.50;;;;;;;18.04;73.80;100603.28;10467971;28;20063;-79
2023/09/20 18:10:17;;;;;;;7.63;4.30;;;;;;;18.03;74.55;100607.78;10457479;28;20500;-80
2023/09/20 18:15:18;;;;;;;11.35;4.63;;;;;;;18.49;75.84;100694.78;10456883;28;20456;-78
2023/09/20 18:20:28;;;;;;;8.88;4.13;;;;;;;18.87;76.47;100769.41;10456098;28;20240;-79
2023/09/20 18:25:29;;;;;;;10.60;4.65;;;;;;;18.65;77.52;100753.50;10467514;28;20048;-79
2023/09/20 18:30:29;;;;;;;12.88;4.43;;;;;;;18.35;78.34;100702.06;10455680;28;20057;-78
2023/09/20 18:35:36;;;;;;;9.30;4.63;;;;;;;18.38;80.13;100733.91;10456523;28;20099;-78
2023/09/20 18:40:37;;;;;;;8.80;4.30;;;;;;;17.81;79.52;100640.53;10455922;28;20051;-79
2023/09/20 18:45:38;;;;;;;7.85;4.57;;;;;;;18.50;80.34;100766.38;10455535;28;20040;-80
2023/09/20 18:50:49;;;;;;;6.20;4.60;;;;;;;18.41;83.10;100767.63;10466059;28;20484;-79
2023/09/20 18:55:51;;;;;;;6.93;4.57;;;;;;;18.25;81.61;100772.41;10419078;28;20059;-78
2023/09/20 19:00:54;;;;;;;7.13;4.93;;;;;;;17.83;82.79;100716.34;10426301;28;20057;-79
2023/09/20 19:05:59;;;;;;;9.00;4.77;;;;;;;17.01;82.58;100603.66;10455223;28;20448;-79
2023/09/20 19:11:00;;;;;;;11.07;4.50;;;;;;;16.66;83.23;100558.19;10453333;28;20527;-79
2023/09/20 19:16:02;;;;;;;6.85;4.63;;;;;;;17.54;83.79;100707.66;10452776;28;20048;-80
2023/09/20 19:21:03;;;;;;;6.78;5.03;;;;;;;17.25;84.50;100664.00;10454398;28;20049;-80
2023/09/20 19:26:04;;;;;;;7.57;5.15;;;;;;;16.77;85.31;100591.66;10454464;28;20098;-80
2023/09/20 19:31:12;;;;;;;9.70;5.00;;;;;;;16.52;87.41;100563.69;10477769;28;20131;-81
2023/09/20 19:36:15;;;;;;;6.50;5.30;;;;;;;16.49;86.92;100578.34;10496299;28;20057;-81
2023/09/20 19:41:16;;;;;;;13.63;6.93;;;;;;;16.95;87.62;100649.28;10496663;28;20075;-79
2023/09/20 19:46:18;;;;;;;10.50;7.38;;;;;;;17.11;88.30;100683.78;10477300;28;20511;-78
2023/09/20 19:51:19;;;;;;;8.13;5.60;;;;;;;17.10;88.87;100695.56;10477331;28;20048;-79
2023/09/20 19:56:24;;;;;;;10.68;6.38;;;;;;;17.46;89.82;100773.13;10494967;28;20492;-79
2023/09/20 20:01:25;;;;;;;9.82;6.25;;;;;;;16.29;90.38;100574.75;10495858;28;20044;-79
2023/09/20 20:06:26;;;;;;;12.65;6.97;;;;;;;15.98;91.20;100547.41;10494555;28;20071;-83
2023/09/20 20:11:28;;;;;;;11.10;6.75;;;;;;;16.85;91.73;100690.75;10498577;28;20083;-79
2023/09/20 20:16:30;;;;;;;7.90;6.13;;;;;;;16.50;92.86;100630.09;10486808;28;20061;-80
2023/09/20 20:21:32;;;;;;;8.18;6.13;;;;;;;16.24;93.51;100596.78;10460499;28;20390;-80
2023/09/20 20:26:35;;;;;;;11.45;6.72;;;;;;;17.22;94.43;100750.31;10443559;28;20063;-80
2023/09/20 20:31:38;;;;;;;8.98;6.60;;;;;;;16.47;94.99;100633.19;10460658;28;20045;-80
2023/09/20 20:36:40;;;;;;;11.07;7.22;;;;;;;15.85;95.77;100539.28;10460326;28;20118;-79
2023/09/20 20:41:41;;;;;;;11.25;7.45;;;;;;;16.40;97.14;100628.63;10461095;28;20509;-79
2023/09/20 20:46:43;;;;;;;10.65;7.28;;;;;;;16.33;97.86;100625.09;10459613;28;20045;-79
2023/09/20 20:51:43;;;;;;;12.70;7.88;;;;;;;16.55;98.39;100668.72;10442282;28;20057;-79
2023/09/20 20:56:45;;;;;;;11.40;7.65;;;;;;;16.42;99.49;100644.50;10441828;28;20083;-80
2023/09/20 21:01:48;;;;;;;12.43;7.93;;;;;;;16.58;100.00;100670.19;10459452;28;20055;-79
2023/09/20 21:06:48;;;;;;;13.25;7.88;;;;;;;15.82;100.00;100533.47;10459577;28;20057;-79
2023/09/20 21:11:50;;;;;;;14.43;7.88;;;;;;;16.28;100.00;100613.31;10459743;28;20517;-80
2023/09/20 21:16:51;;;;;;;11.80;8.65;;;;;;;15.78;100.00;100529.56;10459592;28;20107;-79
2023/09/20 21:21:52;;;;;;;12.98;8.38;;;;;;;16.07;100.00;100576.72;10459513;28;20053;-80
2023/09/20 21:26:54;;;;;;;12.60;8.70;;;;;;;16.66;100.00;100675.34;10458700;28;20063;-79
2023/09/20 21:31:55;;;;;;;13.88;8.55;;;;;;;16.50;100.00;100635.47;10440249;28;20167;-79
2023/09/20 21:36:56;;;;;;;13.32;8.38;;;;;;;16.42;100.00;100642.66;10458365;28;20059;-80
2023/09/20 21:41:58;;;;;;;15.45;9.63;;;;;;;15.85;100.00;100538.44;10440261;28;20102;-80
2023/09/20 21:47:02;;;;;;;12.85;8.95;;;;;;;16.57;100.00;100639.00;10439395;28;20525;-81
2023/09/20 21:52:06;;;;;;;16.05;9.35;;;;;;;16.47;100.00;100592.97;10439982;28;20057;-80
2023/09/20 21:57:06;;;;;;;12.68;9.35;;;;;;;16.13;100.00;100525.81;10439121;28;20053;-79
2023/09/20 22:02:09;;;;;;;12.93;9.15;;;;;;;17.62;100.00;100731.63;10447994;28;20056;-80
2023/09/20 22:07:12;;;;;;;11.45;9.25;;;;;;;17.18;100.00;100641.69;10458904;28;20056;-79
2023/09/20 22:12:13;;;;;;;15.55;9.73;;;;;;;16.70;100.00;100566.63;10457146;28;20516;-81
2023/09/20 22:17:19;;;;;;;12.35;9.32;;;;;;;17.53;100.00;100677.28;10456787;28;20045;-82
2023/09/20 22:22:22;;;;;;;15.50;10.32;;;;;;;17.17;100.00;100615.91;10457481;28;20080;-80
2023/09/20 22:27:22;;;;;;;13.17;9.43;;;;;;;16.54;100.00;100513.34;10455389;28;20056;-80
2023/09/20 22:32:23;;;;;;;13.50;8.75;;;;;;;17.16;100.00;100611.53;10454945;28;20428;-81
2023/09/20 22:37:24;;;;;;;14.85;8.80;;;;;;;17.16;100.00;100616.09;10455895;28;20052;-79
2023/09/20 22:42:25;;;;;;;11.23;8.93;;;;;;;17.78;100.00;100712.44;10456144;28;20067;-79
2023/09/20 22:47:26;;;;;;;10.95;9.23;;;;;;;17.47;100.00;100663.81;10455588;28;20473;-79
2023/09/20 22:52:27;;;;;;;17.92;9.40;;;;;;;17.08;100.00;100606.34;10436590;28;20045;-81
2023/09/20 22:57:28;;;;;;;11.20;9.18;;;;;;;17.19;100.00;100611.13;10463051;22;20053;-79
2023/09/20 23:02:31;;;;;;;12.32;9.65;;;;;;;17.50;100.00;100645.47;10437373;28;20057;-80
2023/09/20 23:07:32;;;;;;;17.90;10.48;;;;;;;17.15;100.00;100593.78;10455111;28;20494;-79
2023/09/20 23:12:34;;;;;;;27.02;10.85;;;;;;;16.95;100.00;100566.09;10454417;28;20074;-79
2023/09/20 23:17:37;;;;;;;12.90;9.77;;;;;;;17.09;100.00;100594.59;10454766;28;20095;-79
2023/09/20 23:22:38;;;;;;;13.40;10.20;;;;;;;16.80;100.00;100540.25;10465127;28;20091;-79
2023/09/20 23:27:40;;;;;;;12.48;10.00;;;;;;;17.71;100.00;100695.47;10455246;28;20064;-80
2023/09/20 23:33:00;;;;;;;20.73;10.43;;;;;;;17.40;100.00;100633.47;10435787;28;20107;-80
2023/09/20 23:38:11;;;;;;;16.45;10.25;;;;;;;17.13;100.00;100589.66;10436495;28;20428;-81
2023/09/20 23:43:13;;;;;;;14.90;9.60;;;;;;;17.54;100.00;100651.25;10440342;28;20080;-80
2023/09/20 23:48:17;;;;;;;16.20;10.10;;;;;;;17.89;100.00;100700.25;10445435;28;20056;-80
2023/09/20 23:53:18;;;;;;;13.02;10.07;;;;;;;17.56;100.00;100646.50;10444099;28;20439;-80
2023/09/20 23:58:18;;;;;;;17.85;11.07;;;;;;;16.83;100.00;100526.44;10461359;28;20067;-80
